Time;durP1;ratioP1;P1;durP2;ratioP2;P2;SDS_P1;SDS_P2;PMS_P1;PMS_P2;Temp;Humidity;BMP_temperature;BMP_pressure;BME280_temperature;BME280_humidity;BME280_pressure;Samples;Min_cycle;Max_cycle;Signal;HPM_P1;HPM_P2
2021/04/30 00:00:42;;;;;;;12.52;6.25;;;;;;;13.91;81.29;99463.19;5093864;28;20032;-76
2021/04/30 00:03:08;;;;;;;9.32;5.75;;;;;;;13.63;80.74;99409.25;5093577;28;20147;-77
2021/04/30 00:05:33;;;;;;;12.35;5.70;;;;;;;13.89;80.78;99455.25;5094188;28;20039;-75
2021/04/30 00:08:00;;;;;;;11.60;5.93;;;;;;;13.87;80.96;99457.22;5075452;28;20032;-75
2021/04/30 00:10:26;;;;;;;11.23;5.85;;;;;;;13.98;80.49;99461.63;5058570;28;20046;-75
2021/04/30 00:12:53;;;;;;;9.32;5.10;;;;;;;13.91;80.69;99457.81;5075541;28;20444;-75
2021/04/30 00:15:19;;;;;;;9.95;5.68;;;;;;;13.94;80.02;99450.34;5092905;28;20068;-75
2021/04/30 00:17:44;;;;;;;9.30;5.50;;;;;;;13.63;80.17;99411.94;5093073;28;20048;-75
2021/04/30 00:20:11;;;;;;;9.85;5.65;;;;;;;13.89;80.09;99457.91;5058600;28;20036;-83
2021/04/30 00:22:37;;;;;;;9.85;5.40;;;;;;;13.93;80.55;99461.22;5093414;28;20157;-75
2021/04/30 00:25:03;;;;;;;11.35;5.80;;;;;;;13.90;80.25;99461.47;5093424;28;20040;-75
2021/04/30 00:27:29;;;;;;;13.07;5.95;;;;;;;13.87;80.42;99456.38;5074988;28;20036;-74
2021/04/30 00:29:54;;;;;;;10.88;6.07;;;;;;;13.93;79.92;99456.69;5075026;28;20074;-75
2021/04/30 00:32:20;;;;;;;11.68;6.22;;;;;;;13.84;80.41;99453.97;5074725;28;20050;-76
2021/04/30 00:34:45;;;;;;;12.55;6.35;;;;;;;13.60;81.04;99441.66;5075108;28;20032;-76
2021/04/30 00:37:11;;;;;;;11.23;5.80;;;;;;;13.71;81.03;99459.53;5075272;28;20060;-78
2021/04/30 00:39:36;;;;;;;11.40;5.60;;;;;;;13.59;81.27;99452.50;5093037;28;20036;-73
2021/04/30 00:42:04;;;;;;;12.90;5.70;;;;;;;13.69;81.09;99458.78;5093673;28;20036;-74
2021/04/30 00:44:30;;;;;;;11.77;6.13;;;;;;;13.56;81.46;99464.34;5093226;28;20401;-74
2021/04/30 00:46:56;;;;;;;16.60;6.07;;;;;;;13.42;81.76;99451.28;5058552;28;20032;-74
2021/04/30 00:49:22;;;;;;;13.65;5.97;;;;;;;13.43;81.98;99467.22;5058690;28;20032;-73
2021/04/30 00:51:47;;;;;;;10.88;5.85;;;;;;;13.32;82.47;99453.06;5058966;28;20047;-73
2021/04/30 00:54:13;;;;;;;11.77;6.18;;;;;;;13.22;82.72;99438.69;5058766;28;20115;-80
2021/04/30 00:56:39;;;;;;;13.30;5.95;;;;;;;13.38;82.69;99473.94;5074943;28;20020;-73
2021/04/30 00:59:05;;;;;;;10.43;6.32;;;;;;;13.25;83.20;99459.88;5092713;28;20419;-74
2021/04/30 01:01:31;;;;;;;11.77;5.68;;;;;;;13.16;82.95;99432.88;5092445;28;20489;-74
2021/04/30 01:03:56;;;;;;;10.70;5.50;;;;;;;13.10;82.72;99425.34;5076546;28;20071;-74
2021/04/30 01:06:22;;;;;;;10.30;5.47;;;;;;;13.32;82.32;99461.09;5078479;28;20105;-74
2021/04/30 01:08:47;;;;;;;9.52;5.18;;;;;;;13.26;82.60;99461.59;5078594;28;20153;-74
2021/04/30 01:11:13;;;;;;;9.80;5.60;;;;;;;13.15;82.66;99433.84;5097004;28;20036;-75
2021/04/30 01:13:39;;;;;;;9.48;5.60;;;;;;;13.22;82.64;99452.09;5096986;28;20051;-71
2021/04/30 01:16:05;;;;;;;10.45;5.30;;;;;;;13.06;82.27;99423.91;5061949;28;20044;-71
2021/04/30 01:18:41;;;;;;;10.35;5.47;;;;;;;13.15;82.25;99439.22;5096472;28;20421;-71
2021/04/30 01:21:07;;;;;;;9.40;5.32;;;;;;;13.18;82.60;99455.00;5097188;28;20040;-71
2021/04/30 01:23:33;;;;;;;9.35;5.78;;;;;;;13.07;82.16;99430.97;5078388;28;20480;-71
2021/04/30 01:25:59;;;;;;;8.43;5.22;;;;;;;13.11;82.40;99458.31;5078994;28;20044;-71
2021/04/30 01:28:24;;;;;;;10.07;5.82;;;;;;;13.06;82.50;99452.50;5096307;28;20054;-78
2021/04/30 01:30:50;;;;;;;11.38;5.63;;;;;;;13.04;82.72;99459.81;5096602;28;20062;-76
2021/04/30 01:33:20;;;;;;;9.00;5.10;;;;;;;13.01;82.71;99442.16;5096128;28;20035;-82
2021/04/30 01:35:46;;;;;;;8.55;5.40;;;;;;;13.08;82.61;99453.22;5096787;28;20085;-75
2021/04/30 01:38:12;;;;;;;12.90;5.70;;;;;;;13.07;83.08;99463.09;5096474;28;20032;-76
2021/04/30 01:40:38;;;;;;;10.95;5.53;;;;;;;13.15;82.69;99459.78;5077805;28;20032;-75
2021/04/30 01:43:09;;;;;;;11.13;5.55;;;;;;;12.97;83.34;99439.88;5078311;28;20036;-77
2021/04/30 01:45:38;;;;;;;10.25;5.53;;;;;;;13.11;83.55;99459.16;5095692;28;20032;-77
2021/04/30 01:48:08;;;;;;;9.38;5.53;;;;;;;12.98;83.40;99441.56;5078109;28;20081;-77
2021/04/30 01:50:34;;;;;;;10.15;5.78;;;;;;;12.77;83.81;99418.28;5095711;28;20038;-76
2021/04/30 01:53:00;;;;;;;10.80;5.70;;;;;;;12.85;84.00;99439.94;5077867;28;20447;-75
2021/04/30 01:55:30;;;;;;;8.98;5.68;;;;;;;12.94;84.10;99456.22;5095761;28;20515;-76
2021/04/30 01:57:59;;;;;;;11.73;6.47;;;;;;;12.98;84.26;99458.50;5077850;28;20056;-73
2021/04/30 02:00:26;;;;;;;10.93;6.43;;;;;;;12.94;84.60;99451.69;5077650;28;20104;-75
2021/04/30 02:02:54;;;;;;;11.63;6.43;;;;;;;12.96;84.75;99460.44;5061486;28;20048;-75
2021/04/30 02:05:21;;;;;;;10.55;5.75;;;;;;;12.90;83.80;99444.88;5095560;28;20036;-76
2021/04/30 02:07:47;;;;;;;12.93;5.95;;;;;;;13.00;83.92;99461.88;5095875;28;20119;-77
2021/04/30 02:10:31;;;;;;;8.73;5.60;;;;;;;12.93;83.69;99441.94;5096066;28;20277;-75
2021/04/30 02:12:58;;;;;;;10.27;6.03;;;;;;;12.97;83.67;99451.44;5077546;28;20086;-74
2021/04/30 02:15:29;;;;;;;10.38;5.93;;;;;;;12.88;84.10;99462.91;5094117;28;20515;-75
2021/04/30 02:17:55;;;;;;;8.57;5.60;;;;;;;12.85;84.11;99447.94;5077388;28;20481;-75
2021/04/30 02:20:21;;;;;;;9.68;5.85;;;;;;;12.79;84.43;99431.53;5095328;28;20035;-75
2021/04/30 02:22:47;;;;;;;11.23;6.38;;;;;;;12.82;84.71;99458.03;5095704;28;20037;-74
2021/04/30 02:25:14;;;;;;;10.63;6.07;;;;;;;12.70;84.56;99438.50;5095350;28;20545;-77
2021/04/30 02:27:41;;;;;;;12.52;6.70;;;;;;;12.81;84.63;99467.03;5095227;28;20039;-77
2021/04/30 02:30:09;;;;;;;9.82;6.32;;;;;;;12.78;84.91;99469.97;5077282;28;20031;-77
2021/04/30 02:32:34;;;;;;;13.05;6.55;;;;;;;12.62;84.90;99451.63;5094771;28;20389;-77
2021/04/30 02:35:02;;;;;;;10.70;6.43;;;;;;;12.78;84.81;99465.47;5077400;28;20028;-77
2021/04/30 02:37:28;;;;;;;10.30;6.32;;;;;;;12.85;84.44;99472.03;5060537;28;20504;-75
2021/04/30 02:39:54;;;;;;;11.68;6.60;;;;;;;12.65;84.77;99453.25;5077231;28;20032;-78
2021/04/30 02:42:20;;;;;;;12.20;6.32;;;;;;;12.77;84.87;99482.50;5077185;28;20089;-78
2021/04/30 02:44:45;;;;;;;10.30;6.35;;;;;;;12.50;85.16;99440.13;5077054;28;20044;-76
2021/04/30 02:47:12;;;;;;;12.82;7.00;;;;;;;12.78;85.29;99478.88;5076994;28;20035;-76
2021/04/30 02:49:44;;;;;;;13.05;6.40;;;;;;;12.71;85.24;99476.81;5076944;28;20028;-76
2021/04/30 02:52:11;;;;;;;13.98;7.03;;;;;;;12.69;85.43;99471.59;5079120;28;20035;-75
2021/04/30 02:54:37;;;;;;;12.38;6.53;;;;;;;12.66;85.28;99474.50;5095803;28;20465;-75
2021/04/30 02:57:04;;;;;;;11.93;6.68;;;;;;;12.67;85.18;99470.00;5077028;28;20035;-75
2021/04/30 02:59:30;;;;;;;12.75;7.38;;;;;;;12.63;85.52;99479.25;5076749;28;20032;-75
2021/04/30 03:01:56;;;;;;;12.13;6.72;;;;;;;12.36;85.42;99421.69;5076992;28;20524;-75
2021/04/30 03:04:22;;;;;;;11.85;7.20;;;;;;;12.54;84.98;99454.94;5076487;28;20119;-83
2021/04/30 03:06:49;;;;;;;10.52;6.43;;;;;;;12.66;84.92;99471.84;5076764;28;20127;-76
2021/04/30 03:09:14;;;;;;;11.85;6.70;;;;;;;12.59;85.05;99471.47;5076444;28;20036;-75
2021/04/30 03:11:40;;;;;;;9.82;6.10;;;;;;;12.60;84.97;99469.66;5076325;28;20423;-75
2021/04/30 03:14:07;;;;;;;11.02;6.38;;;;;;;12.60;85.16;99475.00;5059817;28;20495;-75
2021/04/30 03:16:33;;;;;;;14.65;7.05;;;;;;;12.55;84.68;99459.34;5076226;28;20125;-75
2021/04/30 03:18:58;;;;;;;11.13;6.97;;;;;;;12.64;84.81;99472.91;5076587;28;20040;-75
2021/04/30 03:21:24;;;;;;;12.48;6.32;;;;;;;12.73;84.48;99475.69;5076055;28;20036;-77
2021/04/30 03:23:50;;;;;;;15.35;7.15;;;;;;;12.65;84.78;99471.97;5076041;28;20036;-75
2021/04/30 03:26:15;;;;;;;11.70;7.20;;;;;;;12.49;85.02;99459.81;5094362;28;20079;-75
2021/04/30 03:28:41;;;;;;;12.73;7.03;;;;;;;12.55;84.70;99472.72;5075913;28;20028;-75
2021/04/30 03:31:06;;;;;;;14.25;6.35;;;;;;;12.66;84.66;99479.00;5076059;28;20461;-76
2021/04/30 03:33:32;;;;;;;10.20;6.68;;;;;;;12.49;84.19;99454.47;5075381;28;20037;-76
2021/04/30 03:35:57;;;;;;;13.00;6.60;;;;;;;12.74;83.98;99489.91;5094048;28;20043;-75
2021/04/30 03:38:23;;;;;;;9.93;6.30;;;;;;;12.56;84.83;99485.09;5076319;28;20114;-76
2021/04/30 03:40:48;;;;;;;13.68;6.00;;;;;;;12.64;84.24;99489.81;5093443;28;20088;-77
2021/04/30 03:43:14;;;;;;;12.60;6.63;;;;;;;12.63;84.33;99490.78;5075997;28;20054;-77
2021/04/30 03:45:40;;;;;;;10.98;6.05;;;;;;;12.64;83.92;99495.16;5058966;28;20036;-77
2021/04/30 03:48:05;;;;;;;11.77;6.43;;;;;;;12.67;83.85;99497.63;5075695;28;20457;-73
2021/04/30 03:50:31;;;;;;;10.77;6.40;;;;;;;12.75;83.44;99499.69;5075249;28;20051;-73
2021/04/30 03:52:57;;;;;;;9.63;6.05;;;;;;;12.68;83.54;99493.97;5093416;28;20020;-74
2021/04/30 03:55:22;;;;;;;9.70;6.35;;;;;;;12.55;83.65;99483.41;5075603;28;20143;-75
2021/04/30 03:57:48;;;;;;;12.85;6.63;;;;;;;12.64;83.90;99502.34;5075346;28;20051;-74
2021/04/30 04:00:14;;;;;;;12.50;6.50;;;;;;;12.66;83.99;99503.94;5058735;28;20396;-77
2021/04/30 04:02:39;;;;;;;9.15;6.38;;;;;;;12.76;83.43;99506.72;5093014;28;20028;-77
2021/04/30 04:05:05;;;;;;;11.05;6.80;;;;;;;12.73;83.58;99513.16;5058933;28;20031;-77
2021/04/30 04:07:30;;;;;;;10.60;6.38;;;;;;;12.70;83.92;99515.25;5075277;28;20042;-77
2021/04/30 04:09:56;;;;;;;13.13;6.63;;;;;;;12.70;83.96;99520.59;5093659;28;20028;-75
2021/04/30 04:12:21;;;;;;;10.55;6.78;;;;;;;12.57;83.89;99496.66;5075100;28;20480;-76
2021/04/30 04:14:47;;;;;;;9.93;6.78;;;;;;;12.51;83.53;99475.75;5057991;28;20447;-76
2021/04/30 04:17:15;;;;;;;10.85;7.00;;;;;;;12.81;83.59;99517.91;5093352;28;20056;-76
2021/04/30 04:19:40;;;;;;;10.77;6.85;;;;;;;12.92;82.62;99504.50;5075363;28;20383;-74
2021/04/30 04:22:06;;;;;;;11.40;7.13;;;;;;;13.07;82.40;99513.09;5075027;28;20039;-76
2021/04/30 04:24:31;;;;;;;14.40;6.85;;;;;;;13.21;81.52;99512.00;5074861;28;20040;-76
2021/04/30 04:26:57;;;;;;;11.95;6.88;;;;;;;13.38;80.92;99514.97;5075112;28;20161;-76
2021/04/30 04:29:22;;;;;;;13.57;6.70;;;;;;;13.73;80.01;99530.78;5093245;28;20088;-76
2021/04/30 04:31:48;;;;;;;10.75;6.93;;;;;;;13.95;78.74;99534.31;5074554;28;20032;-74
2021/04/30 04:34:13;;;;;;;11.68;6.47;;;;;;;14.18;77.71;99533.16;5058312;28;20056;-75
2021/04/30 04:36:39;;;;;;;13.43;7.57;;;;;;;14.06;78.26;99539.59;5074704;28;20027;-75
2021/04/30 04:39:05;;;;;;;15.85;7.82;;;;;;;13.85;79.12;99544.13;5079384;28;20097;-76
2021/04/30 04:41:30;;;;;;;15.65;7.80;;;;;;;13.83;79.15;99551.44;5081566;28;20545;-82
2021/04/30 04:43:56;;;;;;;11.32;7.40;;;;;;;13.57;79.45;99530.34;5100210;28;20111;-73
2021/04/30 04:46:21;;;;;;;16.02;7.72;;;;;;;13.73;79.83;99557.56;5099556;28;20496;-74
2021/04/30 04:48:47;;;;;;;12.55;7.53;;;;;;;13.70;79.92;99562.31;5081381;28;20036;-75
2021/04/30 04:51:12;;;;;;;13.25;7.57;;;;;;;13.60;79.89;99548.84;5099715;28;20068;-74
2021/04/30 04:53:38;;;;;;;12.43;7.22;;;;;;;13.64;79.72;99541.41;5099383;28;20039;-74
2021/04/30 04:56:03;;;;;;;12.63;7.03;;;;;;;13.65;79.49;99543.13;5081600;28;20461;-74
2021/04/30 04:58:29;;;;;;;15.57;7.63;;;;;;;13.79;79.20;99568.75;5099512;28;20484;-73
2021/04/30 05:00:54;;;;;;;16.33;7.60;;;;;;;13.66;79.77;99555.53;5099468;28;20043;-75
2021/04/30 05:03:20;;;;;;;13.63;8.00;;;;;;;13.69;79.73;99569.50;5100020;28;20090;-75
2021/04/30 05:05:46;;;;;;;18.63;8.57;;;;;;;13.73;79.20;99562.94;5099628;28;20058;-74
2021/04/30 05:08:11;;;;;;;14.43;8.35;;;;;;;13.71;79.57;99567.59;5099459;28;20040;-76
2021/04/30 05:10:37;;;;;;;18.02;7.82;;;;;;;13.72;79.30;99563.91;5081128;28;20036;-76
2021/04/30 05:13:02;;;;;;;16.42;8.02;;;;;;;13.68;79.73;99565.13;5064860;28;20101;-76
2021/04/30 05:15:28;;;;;;;16.88;8.27;;;;;;;13.60;79.53;99559.56;5081247;28;20043;-75
2021/04/30 05:17:54;;;;;;;14.35;7.80;;;;;;;13.63;79.74;99563.84;5099766;28;20097;-75
2021/04/30 05:20:19;;;;;;;16.73;8.35;;;;;;;13.64;79.70;99577.09;5064886;28;20035;-81
2021/04/30 05:22:45;;;;;;;15.63;8.07;;;;;;;13.58;80.02;99569.56;5099163;28;20039;-77
2021/04/30 05:25:12;;;;;;;13.55;7.28;;;;;;;13.54;80.65;99554.75;5099565;28;20036;-82
2021/04/30 05:27:45;;;;;;;14.90;8.20;;;;;;;13.68;81.11;99586.56;5098897;28;20065;-76
2021/04/30 05:30:12;;;;;;;12.90;7.75;;;;;;;13.69;81.13;99582.91;5099464;28;20060;-77
2021/04/30 05:32:38;;;;;;;14.05;7.72;;;;;;;13.72;81.18;99588.03;5099145;28;20076;-78
2021/04/30 05:35:04;;;;;;;11.60;8.48;;;;;;;13.75;81.46;99586.94;5081115;28;20481;-77
2021/04/30 05:37:31;;;;;;;14.30;7.82;;;;;;;13.81;80.95;99590.94;5081654;28;20473;-76
2021/04/30 05:39:58;;;;;;;14.07;8.13;;;;;;;13.58;81.16;99542.78;5064454;28;20059;-74
2021/04/30 05:42:24;;;;;;;15.77;7.63;;;;;;;13.73;81.47;99565.63;5099330;28;20085;-74
2021/04/30 05:44:50;;;;;;;14.25;8.38;;;;;;;13.91;80.99;99584.66;5099310;28;20093;-76
2021/04/30 05:47:16;;;;;;;22.52;12.27;;;;;;;13.98;81.25;99593.03;5081236;28;20469;-77
2021/04/30 05:49:42;;;;;;;27.25;15.27;;;;;;;14.03;81.18;99598.84;5078708;28;20033;-73
2021/04/30 05:52:07;;;;;;;18.00;8.70;;;;;;;14.10;80.92;99602.72;5096112;28;20028;-76
2021/04/30 05:54:33;;;;;;;17.83;8.73;;;;;;;14.23;80.03;99603.38;5077897;28;20036;-77
2021/04/30 05:56:58;;;;;;;18.27;9.18;;;;;;;14.23;79.88;99603.38;5095345;28;20494;-76
2021/04/30 05:59:24;;;;;;;16.83;8.85;;;;;;;14.24;80.16;99602.38;5097402;28;20032;-76
2021/04/30 06:01:49;;;;;;;18.42;9.40;;;;;;;14.32;79.77;99601.72;5078318;28;20035;-77
2021/04/30 06:04:16;;;;;;;19.10;9.05;;;;;;;14.45;79.67;99605.09;5075928;28;20113;-78
2021/04/30 06:06:41;;;;;;;20.42;9.43;;;;;;;14.56;79.21;99601.47;5057339;28;20032;-76
2021/04/30 06:09:07;;;;;;;19.70;9.40;;;;;;;14.56;78.15;99564.75;5055129;28;20392;-81
2021/04/30 06:11:32;;;;;;;17.30;9.82;;;;;;;15.53;76.14;99608.00;5040332;28;20032;-77
2021/04/30 06:13:58;;;;;;;20.42;8.77;;;;;;;16.18;72.52;99568.81;5094201;28;20070;-79
2021/04/30 06:16:23;;;;;;;24.63;9.18;;;;;;;16.99;70.48;99616.81;5094602;28;20048;-83
2021/04/30 06:18:49;;;;;;;16.50;8.75;;;;;;;17.20;68.72;99613.88;5043135;28;20068;-75
2021/04/30 06:21:14;;;;;;;18.25;8.70;;;;;;;17.53;67.59;99615.06;5094944;28;20036;-74
2021/04/30 06:23:40;;;;;;;17.65;10.60;;;;;;;17.93;66.13;99602.00;5094920;28;20032;-75
2021/04/30 06:26:05;;;;;;;14.95;8.20;;;;;;;19.39;61.47;99615.59;5059804;28;20032;-81
2021/04/30 06:28:31;;;;;;;14.48;9.02;;;;;;;19.34;60.37;99620.66;5076194;28;20496;-74
2021/04/30 06:30:56;;;;;;;12.88;8.60;;;;;;;19.91;57.77;99618.13;5076451;28;20036;-75
2021/04/30 06:33:23;;;;;;;15.75;8.98;;;;;;;18.86;60.31;99632.94;5059704;28;20028;-78
2021/04/30 06:35:48;;;;;;;14.48;8.75;;;;;;;20.55;55.46;99627.28;5077826;28;20081;-76
2021/04/30 06:38:14;;;;;;;11.38;8.38;;;;;;;20.69;55.64;99633.88;5074186;28;20115;-79
2021/04/30 06:40:39;;;;;;;13.70;8.35;;;;;;;21.38;53.65;99612.50;5056629;28;20385;-76
2021/04/30 06:43:05;;;;;;;15.45;8.52;;;;;;;21.44;53.41;99622.66;5056272;28;20533;-77
2021/04/30 06:45:32;;;;;;;13.20;8.13;;;;;;;20.96;54.07;99623.66;5073865;28;20059;-77
2021/04/30 06:47:57;;;;;;;11.73;7.95;;;;;;;21.12;53.70;99629.84;5073594;28;20036;-78
2021/04/30 06:50:23;;;;;;;11.52;8.38;;;;;;;21.76;52.77;99629.75;5056209;28;20115;-79
2021/04/30 06:52:48;;;;;;;11.10;8.00;;;;;;;20.15;55.79;99638.09;5055645;28;20036;-80
2021/04/30 06:55:14;;;;;;;12.50;8.18;;;;;;;19.57;56.31;99590.31;5056298;28;20039;-76
2021/04/30 06:57:40;;;;;;;13.95;8.27;;;;;;;19.39;59.27;99639.94;5055767;28;20429;-79
2021/04/30 07:00:06;;;;;;;13.85;8.35;;;;;;;19.70;57.52;99640.25;5055469;28;20029;-77
2021/04/30 07:02:32;;;;;;;15.15;8.35;;;;;;;18.88;59.75;99625.53;5066629;28;20043;-75
2021/04/30 07:04:58;;;;;;;12.57;8.60;;;;;;;18.65;60.92;99651.41;5093321;28;20054;-75
2021/04/30 07:07:24;;;;;;;16.58;8.98;;;;;;;18.07;63.13;99653.75;5075566;28;20046;-77
2021/04/30 07:09:50;;;;;;;13.85;8.30;;;;;;;18.10;62.89;99654.28;5075441;28;20119;-77
2021/04/30 07:12:16;;;;;;;14.18;8.73;;;;;;;17.35;65.16;99601.56;5075545;28;20447;-74
2021/04/30 07:14:41;;;;;;;14.70;9.50;;;;;;;18.26;63.82;99650.91;5093777;28;20034;-73
2021/04/30 07:17:07;;;;;;;13.82;9.02;;;;;;;18.87;59.75;99626.53;5092918;28;20050;-74
2021/04/30 07:19:33;;;;;;;15.30;9.55;;;;;;;19.08;59.22;99642.34;5075662;28;20043;-80
2021/04/30 07:21:58;;;;;;;18.65;9.50;;;;;;;19.33;58.61;99656.00;5093619;28;20123;-79
2021/04/30 07:24:24;;;;;;;15.43;9.40;;;;;;;19.40;59.21;99655.19;5075679;28;20445;-74
2021/04/30 07:26:49;;;;;;;17.48;9.93;;;;;;;19.44;59.57;99655.69;5093057;28;20036;-78
2021/04/30 07:29:15;;;;;;;16.38;10.52;;;;;;;18.80;61.42;99663.28;5093074;28;20039;-79
2021/04/30 07:31:40;;;;;;;17.45;10.55;;;;;;;19.03;59.87;99665.47;5093415;28;20036;-76
2021/04/30 07:34:06;;;;;;;14.93;10.30;;;;;;;19.24;60.65;99652.41;5090753;28;20061;-76
2021/04/30 07:36:31;;;;;;;15.48;10.00;;;;;;;19.24;60.20;99668.63;5055193;28;20047;-76
2021/04/30 07:38:57;;;;;;;15.40;9.60;;;;;;;19.07;60.46;99651.47;5054961;28;20457;-76
2021/04/30 07:41:23;;;;;;;16.05;9.88;;;;;;;18.84;61.29;99678.19;5055291;28;20453;-77
2021/04/30 07:43:48;;;;;;;16.45;10.25;;;;;;;18.44;63.05;99676.03;5072757;28;20042;-77
2021/04/30 07:46:14;;;;;;;17.35;11.35;;;;;;;18.57;61.99;99681.00;5072653;28;20424;-76
2021/04/30 07:48:39;;;;;;;17.20;10.15;;;;;;;18.58;62.97;99683.53;5071992;28;20039;-75
2021/04/30 07:51:05;;;;;;;15.50;9.70;;;;;;;18.11;63.34;99631.69;5054173;28;20157;-75
2021/04/30 07:53:32;;;;;;;14.45;9.02;;;;;;;18.28;63.59;99692.91;5071939;28;20381;-75
2021/04/30 07:55:59;;;;;;;19.38;9.95;;;;;;;17.81;65.15;99694.97;5078655;28;20039;-74
2021/04/30 07:58:28;;;;;;;16.65;10.38;;;;;;;17.98;64.22;99701.41;5038110;28;20089;-78
2021/04/30 08:00:57;;;;;;;19.27;11.25;;;;;;;17.94;64.41;99705.38;5072621;28;20062;-79
2021/04/30 08:03:24;;;;;;;20.13;11.90;;;;;;;17.88;65.34;99700.63;5072767;28;20060;-78
2021/04/30 08:05:53;;;;;;;21.90;12.02;;;;;;;17.70;66.06;99698.75;5054411;28;20093;-73
2021/04/30 08:08:20;;;;;;;18.77;11.57;;;;;;;17.27;67.62;99690.41;5072696;28;20470;-74
2021/04/30 08:10:45;;;;;;;22.38;11.80;;;;;;;17.35;67.83;99709.38;5054799;28;20086;-75
2021/04/30 08:13:11;;;;;;;19.50;11.43;;;;;;;17.59;66.38;99696.22;5053796;28;20037;-77
2021/04/30 08:15:37;;;;;;;16.65;10.25;;;;;;;17.83;65.27;99700.22;5072729;28;20079;-75
2021/04/30 08:18:03;;;;;;;18.77;11.18;;;;;;;17.85;65.43;99700.91;5054036;28;20409;-79
2021/04/30 08:20:29;;;;;;;16.75;9.32;;;;;;;18.11;65.13;99718.06;5072612;28;20024;-77
2021/04/30 08:22:54;;;;;;;16.60;9.82;;;;;;;18.03;64.33;99726.06;5072319;28;20043;-77
2021/04/30 08:25:20;;;;;;;14.55;9.75;;;;;;;18.01;64.25;99712.72;5072364;28;20036;-75
2021/04/30 08:27:46;;;;;;;16.55;9.93;;;;;;;17.95;64.59;99723.28;5072284;28;20058;-76
2021/04/30 08:30:12;;;;;;;15.70;10.52;;;;;;;18.00;64.62;99732.63;5054292;28;20036;-75
2021/04/30 08:32:38;;;;;;;17.13;11.65;;;;;;;17.64;65.20;99707.38;5054814;28;20033;-76
2021/04/30 08:35:05;;;;;;;19.05;11.80;;;;;;;17.95;64.90;99728.66;5054265;28;20382;-76
2021/04/30 08:37:30;;;;;;;17.85;11.85;;;;;;;18.11;64.56;99711.81;5053923;28;20102;-78
2021/04/30 08:39:57;;;;;;;20.65;12.05;;;;;;;18.35;63.03;99693.16;5071956;28;20470;-77
2021/04/30 08:42:23;;;;;;;19.70;12.35;;;;;;;18.77;62.27;99741.13;5072183;28;20195;-78
2021/04/30 08:44:49;;;;;;;21.00;12.70;;;;;;;18.62;62.27;99743.50;5054316;28;20040;-77
2021/04/30 08:47:17;;;;;;;20.35;13.57;;;;;;;18.70;62.33;99745.44;5053739;28;20037;-76
2021/04/30 08:49:42;;;;;;;23.17;13.77;;;;;;;18.06;64.56;99763.56;5072729;28;20033;-77
2021/04/30 08:52:10;;;;;;;23.42;14.98;;;;;;;18.31;63.47;99746.59;5071790;28;20043;-76
2021/04/30 08:54:37;;;;;;;22.10;13.02;;;;;;;18.34;63.74;99760.81;5072287;28;20118;-81
2021/04/30 08:57:05;;;;;;;23.05;14.63;;;;;;;17.69;64.78;99728.53;5054059;28;20024;-77
2021/04/30 08:59:32;;;;;;;22.90;15.80;;;;;;;17.58;66.19;99775.44;5053783;28;20039;-74
2021/04/30 09:01:59;;;;;;;25.27;13.90;;;;;;;17.78;65.76;99764.56;5071934;28;20064;-78
2021/04/30 09:04:25;;;;;;;28.58;16.27;;;;;;;17.92;65.40;99753.25;5053752;28;20114;-76
2021/04/30 09:06:51;;;;;;;27.35;16.23;;;;;;;17.92;65.76;99766.75;5072163;28;20478;-79
2021/04/30 09:09:18;;;;;;;24.05;15.30;;;;;;;18.26;63.56;99765.13;5071674;28;20028;-74
2021/04/30 09:11:54;;;;;;;27.55;16.80;;;;;;;18.02;64.15;99770.25;5072082;28;20166;-80
2021/04/30 09:14:31;;;;;;;28.33;17.48;;;;;;;17.63;64.94;99721.88;5053552;28;20037;-77
2021/04/30 09:17:15;;;;;;;26.17;16.85;;;;;;;17.57;66.27;99740.53;5071827;28;20044;-78
2021/04/30 09:19:48;;;;;;;25.45;16.08;;;;;;;17.59;66.03;99762.78;5072005;28;20098;-78
2021/04/30 09:22:16;;;;;;;26.23;15.48;;;;;;;17.47;66.46;99781.00;5071405;28;20036;-71
2021/04/30 09:24:42;;;;;;;28.35;17.45;;;;;;;17.43;67.12;99734.59;5073000;28;20495;-72
2021/04/30 09:27:08;;;;;;;23.83;14.63;;;;;;;17.57;65.30;99768.34;5057677;28;20040;-73
2021/04/30 09:29:36;;;;;;;23.15;14.10;;;;;;;17.50;64.25;99736.72;5075607;28;20112;-74
2021/04/30 09:32:04;;;;;;;21.60;13.73;;;;;;;17.76;63.77;99748.53;5057206;28;20501;-72
2021/04/30 09:34:35;;;;;;;23.92;13.73;;;;;;;17.95;62.93;99742.16;5075225;28;20074;-74
2021/04/30 09:37:13;;;;;;;23.98;13.13;;;;;;;18.31;62.16;99737.66;5075491;28;20103;-76
2021/04/30 09:39:55;;;;;;;21.02;12.70;;;;;;;18.31;60.80;99727.69;5075284;28;20067;-74
2021/04/30 09:42:26;;;;;;;24.75;15.57;;;;;;;18.41;62.40;99746.53;5057495;28;20032;-72
2021/04/30 09:44:54;;;;;;;22.58;14.55;;;;;;;18.43;61.90;99717.53;5058496;28;20119;-73
2021/04/30 09:47:21;;;;;;;22.00;14.77;;;;;;;18.54;61.29;99727.25;5080272;28;20032;-74
2021/04/30 09:49:49;;;;;;;20.98;13.57;;;;;;;18.45;60.92;99741.69;5075982;28;20028;-72
2021/04/30 09:52:15;;;;;;;21.90;12.45;;;;;;;18.31;61.14;99741.19;5075056;28;20028;-74
2021/04/30 09:54:41;;;;;;;19.33;11.93;;;;;;;18.21;60.62;99732.31;5075479;28;20037;-73
2021/04/30 09:57:12;;;;;;;14.85;9.93;;;;;;;18.10;57.52;99729.84;5057052;28;20381;-74
2021/04/30 09:59:40;;;;;;;17.67;9.75;;;;;;;18.06;57.21;99741.97;5075219;28;20078;-72
2021/04/30 10:02:19;;;;;;;15.10;9.63;;;;;;;18.09;58.29;99743.50;5074614;28;20043;-72
2021/04/30 10:04:47;;;;;;;15.35;8.93;;;;;;;17.87;56.74;99699.78;5074666;28;20495;-76
2021/04/30 10:07:15;;;;;;;14.02;8.75;;;;;;;18.09;56.72;99748.91;5056447;28;20127;-75
2021/04/30 10:09:43;;;;;;;14.32;8.20;;;;;;;18.13;56.15;99751.13;5074858;28;20043;-75
2021/04/30 10:12:23;;;;;;;12.90;7.75;;;;;;;18.43;55.99;99743.66;5056432;28;20033;-77
2021/04/30 10:14:50;;;;;;;15.20;8.45;;;;;;;18.70;56.01;99756.25;5060481;28;20039;-80
2021/04/30 10:17:16;;;;;;;13.70;8.45;;;;;;;18.60;55.54;99740.09;5094411;28;20389;-77
2021/04/30 10:19:43;;;;;;;15.50;8.85;;;;;;;18.57;55.78;99713.41;5075671;28;20092;-72
2021/04/30 10:22:19;;;;;;;18.85;8.70;;;;;;;18.83;54.99;99756.72;5094484;28;20028;-75
2021/04/30 10:24:53;;;;;;;11.82;7.88;;;;;;;18.76;54.34;99729.47;5094930;28;20102;-72
2021/04/30 10:27:25;;;;;;;12.60;8.20;;;;;;;18.94;54.44;99737.53;5094254;28;20475;-74
2021/04/30 10:30:02;;;;;;;12.33;7.90;;;;;;;19.09;53.48;99724.28;5094769;28;20032;-80
2021/04/30 10:32:34;;;;;;;14.18;8.65;;;;;;;19.10;53.93;99732.22;5076486;28;20047;-80
2021/04/30 10:35:04;;;;;;;11.70;7.25;;;;;;;19.10;54.44;99734.94;5084895;28;20039;-78
2021/04/30 10:37:32;;;;;;;12.32;7.43;;;;;;;19.26;53.92;99739.59;5073465;28;20115;-79
2021/04/30 10:40:03;;;;;;;11.50;7.35;;;;;;;19.27;52.72;99722.38;5074324;28;20047;-78
2021/04/30 10:42:39;;;;;;;9.50;7.10;;;;;;;18.96;53.13;99735.53;5075731;28;20036;-78
2021/04/30 10:45:06;;;;;;;11.70;6.53;;;;;;;19.12;52.90;99740.19;5077560;28;20039;-78
2021/04/30 10:47:32;;;;;;;11.95;6.47;;;;;;;19.05;52.38;99736.44;5056158;28;20028;-77
2021/04/30 10:50:16;;;;;;;10.38;6.80;;;;;;;18.83;52.20;99714.34;5073844;28;20036;-78
2021/04/30 10:52:41;;;;;;;10.85;6.75;;;;;;;19.07;52.27;99715.50;5073842;28;20033;-70
2021/04/30 10:55:31;;;;;;;10.20;6.55;;;;;;;19.30;51.67;99727.47;5073571;28;20059;-72
2021/04/30 10:58:00;;;;;;;11.48;6.18;;;;;;;19.38;51.50;99713.97;5072741;28;20096;-74
2021/04/30 11:00:38;;;;;;;12.10;6.28;;;;;;;19.61;51.07;99729.66;5056146;28;20025;-76
2021/04/30 11:03:15;;;;;;;9.93;7.03;;;;;;;19.39;50.48;99740.00;5087425;28;20028;-73
2021/04/30 11:06:05;;;;;;;11.10;6.72;;;;;;;19.23;51.39;99704.78;5093647;28;20061;-73
2021/04/30 11:08:50;;;;;;;12.35;6.55;;;;;;;19.67;50.55;99729.00;5093332;28;20480;-82
2021/04/30 11:11:31;;;;;;;11.13;6.57;;;;;;;19.80;49.64;99732.13;5093587;28;20035;-78
2021/04/30 11:14:18;;;;;;;11.55;6.60;;;;;;;19.90;49.76;99738.22;5075358;28;20020;-82
2021/04/30 11:16:45;;;;;;;11.55;7.03;;;;;;;19.79;49.39;99738.53;5093215;28;20048;-80
2021/04/30 11:19:11;;;;;;;9.93;6.13;;;;;;;19.85;49.02;99737.88;5074948;28;20423;-74
2021/04/30 11:21:56;;;;;;;9.20;6.00;;;;;;;19.64;48.97;99724.78;5093475;28;20032;-74
2021/04/30 11:24:51;;;;;;;11.07;6.45;;;;;;;19.68;49.56;99730.69;5093511;28;20797;-73